sensor_id;sensor_type;location;lat;lon;timestamp;P1;durP1;ratioP1;P2;durP2;ratioP2
71162;SDS011;58858;50.948;6.566;2023-05-10T00:01:23;10.23;;;8.57;;
71162;SDS011;58858;50.948;6.566;2023-05-10T00:11:24;12.40;;;8.60;;
71162;SDS011;58858;50.948;6.566;2023-05-10T00:21:25;9.57;;;7.70;;
71162;SDS011;58858;50.948;6.566;2023-05-10T00:31:28;12.82;;;8.77;;
71162;SDS011;58858;50.948;6.566;2023-05-10T00:41:31;11.80;;;8.38;;
71162;SDS011;58858;50.948;6.566;2023-05-10T00:51:34;9.50;;;7.75;;
71162;SDS011;58858;50.948;6.566;2023-05-10T01:01:35;9.55;;;7.65;;
71162;SDS011;58858;50.948;6.566;2023-05-10T01:11:37;13.75;;;9.77;;
71162;SDS011;58858;50.948;6.566;2023-05-10T01:42:04;17.70;;;11.00;;
71162;SDS011;58858;50.948;6.566;2023-05-10T01:52:10;13.20;;;9.38;;
71162;SDS011;58858;50.948;6.566;2023-05-10T02:02:13;12.52;;;7.28;;
71162;SDS011;58858;50.948;6.566;2023-05-10T02:12:15;8.38;;;6.15;;
71162;SDS011;58858;50.948;6.566;2023-05-10T02:22:17;10.30;;;5.63;;
71162;SDS011;58858;50.948;6.566;2023-05-10T02:32:19;9.20;;;5.82;;
71162;SDS011;58858;50.948;6.566;2023-05-10T02:42:23;13.80;;;7.43;;
71162;SDS011;58858;50.948;6.566;2023-05-10T02:52:27;11.35;;;7.38;;
71162;SDS011;58858;50.948;6.566;2023-05-10T03:02:31;13.63;;;7.60;;
71162;SDS011;58858;50.948;6.566;2023-05-10T03:12:41;14.35;;;9.88;;
71162;SDS011;58858;50.948;6.566;2023-05-10T03:23:07;20.42;;;11.98;;
71162;SDS011;58858;50.948;6.566;2023-05-10T03:33:13;16.25;;;11.50;;
71162;SDS011;58858;50.948;6.566;2023-05-10T03:43:17;16.70;;;10.43;;
71162;SDS011;58858;50.948;6.566;2023-05-10T03:53:19;14.50;;;10.48;;
71162;SDS011;58858;50.948;6.566;2023-05-10T04:03:20;14.85;;;10.60;;
71162;SDS011;58858;50.948;6.566;2023-05-10T04:13:21;13.10;;;10.07;;
71162;SDS011;58858;50.948;6.566;2023-05-10T04:23:23;18.65;;;10.90;;
71162;SDS011;58858;50.948;6.566;2023-05-10T04:33:24;13.82;;;8.80;;
71162;SDS011;58858;50.948;6.566;2023-05-10T04:43:25;14.60;;;9.50;;
71162;SDS011;58858;50.948;6.566;2023-05-10T04:53:26;17.80;;;10.38;;
71162;SDS011;58858;50.948;6.566;2023-05-10T05:03:28;19.40;;;10.25;;
71162;SDS011;58858;50.948;6.566;2023-05-10T05:13:29;17.73;;;9.77;;
71162;SDS011;58858;50.948;6.566;2023-05-10T05:23:30;15.15;;;9.13;;
71162;SDS011;58858;50.948;6.566;2023-05-10T05:33:31;15.25;;;9.05;;
71162;SDS011;58858;50.948;6.566;2023-05-10T05:43:32;19.02;;;10.68;;
71162;SDS011;58858;50.948;6.566;2023-05-10T05:53:33;20.63;;;11.68;;
71162;SDS011;58858;50.948;6.566;2023-05-10T06:03:34;23.55;;;12.02;;
71162;SDS011;58858;50.948;6.566;2023-05-10T06:13:35;17.85;;;10.60;;
71162;SDS011;58858;50.948;6.566;2023-05-10T06:23:36;19.83;;;11.48;;
71162;SDS011;58858;50.948;6.566;2023-05-10T06:33:37;16.85;;;11.77;;
71162;SDS011;58858;50.948;6.566;2023-05-10T06:43:38;19.08;;;11.70;;
71162;SDS011;58858;50.948;6.566;2023-05-10T06:53:41;18.08;;;11.32;;
71162;SDS011;58858;50.948;6.566;2023-05-10T07:03:42;13.88;;;9.90;;
71162;SDS011;58858;50.948;6.566;2023-05-10T07:13:43;18.60;;;8.95;;
71162;SDS011;58858;50.948;6.566;2023-05-10T07:23:46;17.00;;;11.02;;
71162;SDS011;58858;50.948;6.566;2023-05-10T07:33:47;13.93;;;8.90;;
71162;SDS011;58858;50.948;6.566;2023-05-10T07:43:48;19.52;;;13.15;;
71162;SDS011;58858;50.948;6.566;2023-05-10T07:53:49;22.42;;;12.93;;
71162;SDS011;58858;50.948;6.566;2023-05-10T08:03:51;20.75;;;12.68;;
71162;SDS011;58858;50.948;6.566;2023-05-10T08:13:53;16.27;;;12.05;;
71162;SDS011;58858;50.948;6.566;2023-05-10T08:23:54;14.45;;;9.00;;
71162;SDS011;58858;50.948;6.566;2023-05-10T08:33:55;7.45;;;4.85;;
71162;SDS011;58858;50.948;6.566;2023-05-10T08:43:56;14.93;;;9.20;;
71162;SDS011;58858;50.948;6.566;2023-05-10T08:53:58;19.25;;;11.90;;
71162;SDS011;58858;50.948;6.566;2023-05-10T09:04:00;22.58;;;13.02;;
71162;SDS011;58858;50.948;6.566;2023-05-10T09:14:01;17.48;;;11.27;;
71162;SDS011;58858;50.948;6.566;2023-05-10T09:24:06;16.42;;;10.27;;
71162;SDS011;58858;50.948;6.566;2023-05-10T09:34:08;16.10;;;10.40;;
71162;SDS011;58858;50.948;6.566;2023-05-10T09:44:09;21.48;;;11.55;;
71162;SDS011;58858;50.948;6.566;2023-05-10T09:54:15;17.60;;;10.63;;
71162;SDS011;58858;50.948;6.566;2023-05-10T10:04:17;15.88;;;10.32;;
71162;SDS011;58858;50.948;6.566;2023-05-10T10:14:18;8.32;;;5.78;;
71162;SDS011;58858;50.948;6.566;2023-05-10T10:24:19;5.65;;;4.07;;
71162;SDS011;58858;50.948;6.566;2023-05-10T10:54:34;7.32;;;3.53;;
71162;SDS011;58858;50.948;6.566;2023-05-10T11:04:42;114.75;;;8.90;;
71162;SDS011;58858;50.948;6.566;2023-05-10T11:14:49;34.25;;;5.80;;
71162;SDS011;58858;50.948;6.566;2023-05-10T11:24:56;57.78;;;5.82;;
71162;SDS011;58858;50.948;6.566;2023-05-10T11:34:57;140.35;;;9.18;;
71162;SDS011;58858;50.948;6.566;2023-05-10T11:44:58;17.05;;;3.53;;
71162;SDS011;58858;50.948;6.566;2023-05-10T11:55:01;34.22;;;4.30;;
71162;SDS011;58858;50.948;6.566;2023-05-10T12:05:03;234.35;;;12.38;;
71162;SDS011;58858;50.948;6.566;2023-05-10T12:15:05;189.45;;;8.77;;
71162;SDS011;58858;50.948;6.566;2023-05-10T12:25:11;460.08;;;19.02;;
71162;SDS011;58858;50.948;6.566;2023-05-10T12:35:12;88.20;;;4.15;;
71162;SDS011;58858;50.948;6.566;2023-05-10T12:45:14;437.27;;;19.05;;
71162;SDS011;58858;50.948;6.566;2023-05-10T12:55:15;511.88;;;22.58;;
71162;SDS011;58858;50.948;6.566;2023-05-10T13:05:16;510.55;;;23.98;;
71162;SDS011;58858;50.948;6.566;2023-05-10T13:15:17;859.47;;;35.75;;
71162;SDS011;58858;50.948;6.566;2023-05-10T13:25:18;456.17;;;20.83;;
71162;SDS011;58858;50.948;6.566;2023-05-10T13:35:19;355.08;;;16.65;;
71162;SDS011;58858;50.948;6.566;2023-05-10T13:45:20;341.23;;;14.00;;
71162;SDS011;58858;50.948;6.566;2023-05-10T13:55:21;165.85;;;8.15;;
71162;SDS011;58858;50.948;6.566;2023-05-10T14:05:22;105.50;;;5.53;;
71162;SDS011;58858;50.948;6.566;2023-05-10T14:15:24;157.05;;;7.88;;
71162;SDS011;58858;50.948;6.566;2023-05-10T14:25:25;341.48;;;16.13;;
71162;SDS011;58858;50.948;6.566;2023-05-10T14:35:26;523.03;;;23.45;;
71162;SDS011;58858;50.948;6.566;2023-05-10T14:45:28;485.90;;;22.38;;
71162;SDS011;58858;50.948;6.566;2023-05-10T14:55:29;281.55;;;11.30;;
71162;SDS011;58858;50.948;6.566;2023-05-10T15:05:30;245.48;;;11.15;;
71162;SDS011;58858;50.948;6.566;2023-05-10T15:15:31;66.97;;;3.55;;
71162;SDS011;58858;50.948;6.566;2023-05-10T15:25:33;148.02;;;6.63;;
71162;SDS011;58858;50.948;6.566;2023-05-10T15:35:39;60.28;;;3.60;;
71162;SDS011;58858;50.948;6.566;2023-05-10T15:45:43;108.90;;;5.93;;
71162;SDS011;58858;50.948;6.566;2023-05-10T15:55:44;22.85;;;2.67;;
71162;SDS011;58858;50.948;6.566;2023-05-10T16:05:45;7.25;;;2.10;;
71162;SDS011;58858;50.948;6.566;2023-05-10T16:15:46;29.88;;;2.63;;
71162;SDS011;58858;50.948;6.566;2023-05-10T16:25:47;10.60;;;2.33;;
71162;SDS011;58858;50.948;6.566;2023-05-10T16:35:48;5.85;;;1.77;;
71162;SDS011;58858;50.948;6.566;2023-05-10T16:45:49;13.25;;;2.13;;
71162;SDS011;58858;50.948;6.566;2023-05-10T16:55:50;3.15;;;2.10;;
71162;SDS011;58858;50.948;6.566;2023-05-10T17:05:53;20.10;;;2.85;;
71162;SDS011;58858;50.948;6.566;2023-05-10T17:15:54;14.88;;;2.58;;
71162;SDS011;58858;50.948;6.566;2023-05-10T17:25:55;4.72;;;2.05;;
71162;SDS011;58858;50.948;6.566;2023-05-10T17:35:56;4.40;;;2.22;;
71162;SDS011;58858;50.948;6.566;2023-05-10T17:45:57;2.58;;;2.05;;
71162;SDS011;58858;50.948;6.566;2023-05-10T17:55:58;3.25;;;2.00;;
71162;SDS011;58858;50.948;6.566;2023-05-10T18:06:01;2.60;;;1.40;;
71162;SDS011;58858;50.948;6.566;2023-05-10T18:50:59;1.70;;;1.30;;
71162;SDS011;58858;50.948;6.566;2023-05-10T19:01:00;1.05;;;0.85;;
71162;SDS011;58858;50.948;6.566;2023-05-10T19:11:03;3.70;;;1.33;;
71162;SDS011;58858;50.948;6.566;2023-05-10T19:21:04;4.40;;;2.42;;
71162;SDS011;58858;50.948;6.566;2023-05-10T19:31:07;7.88;;;5.15;;
71162;SDS011;58858;50.948;6.566;2023-05-10T19:41:11;6.57;;;4.80;;
71162;SDS011;58858;50.948;6.566;2023-05-10T19:51:12;6.78;;;4.20;;
71162;SDS011;58858;50.948;6.566;2023-05-10T20:01:13;6.63;;;4.70;;
71162;SDS011;58858;50.948;6.566;2023-05-10T20:11:14;7.57;;;5.28;;
71162;SDS011;58858;50.948;6.566;2023-05-10T20:21:15;6.05;;;5.00;;
71162;SDS011;58858;50.948;6.566;2023-05-10T20:31:16;8.43;;;5.57;;
71162;SDS011;58858;50.948;6.566;2023-05-10T20:41:17;8.65;;;6.28;;
71162;SDS011;58858;50.948;6.566;2023-05-10T20:51:18;9.20;;;5.55;;
71162;SDS011;58858;50.948;6.566;2023-05-10T21:01:19;7.82;;;5.95;;
71162;SDS011;58858;50.948;6.566;2023-05-10T21:11:20;9.38;;;6.68;;
71162;SDS011;58858;50.948;6.566;2023-05-10T21:21:22;12.68;;;7.03;;
71162;SDS011;58858;50.948;6.566;2023-05-10T21:31:23;10.40;;;6.13;;
71162;SDS011;58858;50.948;6.566;2023-05-10T21:41:24;7.60;;;5.70;;
71162;SDS011;58858;50.948;6.566;2023-05-10T21:51:25;9.52;;;6.47;;
71162;SDS011;58858;50.948;6.566;2023-05-10T22:01:26;9.02;;;6.45;;
71162;SDS011;58858;50.948;6.566;2023-05-10T22:11:27;10.00;;;7.50;;
71162;SDS011;58858;50.948;6.566;2023-05-10T22:21:28;9.65;;;5.30;;
71162;SDS011;58858;50.948;6.566;2023-05-10T22:31:29;9.75;;;6.55;;
71162;SDS011;58858;50.948;6.566;2023-05-10T22:41:31;10.18;;;7.70;;
71162;SDS011;58858;50.948;6.566;2023-05-10T22:51:33;13.93;;;9.68;;
71162;SDS011;58858;50.948;6.566;2023-05-10T23:01:35;13.70;;;10.48;;
71162;SDS011;58858;50.948;6.566;2023-05-10T23:11:36;14.18;;;10.35;;
71162;SDS011;58858;50.948;6.566;2023-05-10T23:21:37;20.75;;;12.63;;
71162;SDS011;58858;50.948;6.566;2023-05-10T23:31:38;16.08;;;12.40;;
71162;SDS011;58858;50.948;6.566;2023-05-10T23:41:44;18.15;;;11.32;;
71162;SDS011;58858;50.948;6.566;2023-05-10T23:51:45;8.40;;;5.10;;
